Athens, IN (46912)

9:56 PM EDT on August 25, 2016 (GMT -0400)
Fulton County | | Change Station

Elev 791 ft 41.07 °N, 86.18 °W | Updated 21 minutes ago

Rain
Rain
77 °F
Feels Like 77 °F
N
9
Wind Variable Wind from NNW

Today
High -- | Low -- °F
--% Chance of Precip.
Yesterday
High -- | Low -- °F
Precip. -- in
Pressure 30.07 in
Visibility 10.0 miles
Clouds Scattered Clouds 1600 ft
Scattered Clouds 3000 ft
Overcast 4600 ft
Dew Point 73 °F
Humidity 89%
Rainfall 0.14 in
Snow Depth Not available.
7:04 AM 8:27 PM
Last Quarter, 40% visible
METAR KRCR 260135Z AUTO 33008KT 10SM RA SCT016 SCT030 OVC046 25/23 A3007 RMK AO2
Pressure 30.07 in
Visibility 10.0 miles
Clouds Scattered Clouds 1600 ft
Scattered Clouds 3000 ft
Overcast 4600 ft
Dew Point 73 °F
Humidity 89%
Rainfall 0.14 in
Snow Depth Not available.
7:04 AM 8:27 PM
Last Quarter, 40% visible
METAR KRCR 260135Z AUTO 33008KT 10SM RA SCT016 SCT030 OVC046 25/23 A3007 RMK AO2
A tropical disturbance pushing toward the Bahamas, is expected to develop into a tropical depression or storm, and will likely target Florida and the Gulf Coast this weekend into next week.

Right now, the disturbance remains a broad area of low pressure pushing through the Dominican Republic and Haiti, headed toward the southeast Bahamas. Rainfall totals over 3 inches (with locally higher amounts) are expected in HispaƱiola, particularly over elevated terrain.

10-Day Weather Forecast

Almanac

Astronomy

Aug. 25, 2016 Rise Set
Actual Time
Civil Twilight
Nautical Twilight
Astronomical Twilight
Moon
Length of Visible Light
Length of Day
Tomorrow will be .
, % of the Moon is Illuminated

Today's Extremes

State Highs State Lows

Community

WunderPhotos

Upload Photos

1,935,017 photos uploaded!

WunderBlog® & News

Nearby

Air Quality

  Air Quality AQ Index Pollutant
Not available.

Snow Depth

Station Depth Elevation

Earthquake Activity

City Distance Mag. Time & Date
Minimum magnitude displayed is 2.5.

Coastal Water Temperatures

Place Temperature

Stations

Nearby Weather Stations

Station Location Temp. Windchill Dew Point Humidity Wind Precip. Elev Updated Type
                   

Watches & Warnings

There are currently no watches in effect.